createdAt,value
2018-02-19T00:00:59.650Z,8.70
2018-02-19T00:02:02.882Z,8.48
2018-02-19T00:03:06.185Z,7.53
2018-02-19T00:04:08.744Z,8.43
2018-02-19T00:05:11.256Z,8.60
2018-02-19T00:06:13.736Z,9.02
2018-02-19T00:07:16.278Z,8.52
2018-02-19T00:08:19.597Z,8.35
2018-02-19T00:09:22.151Z,8.65
2018-02-19T00:10:24.654Z,8.75
2018-02-19T00:11:27.216Z,8.75
2018-02-19T00:12:29.795Z,8.13
2018-02-19T00:13:32.318Z,7.35
2018-02-19T00:14:34.972Z,8.40
2018-02-19T00:15:37.494Z,8.15
2018-02-19T00:16:40.208Z,8.10
2018-02-19T00:17:42.682Z,8.52
2018-02-19T00:18:45.284Z,7.43
2018-02-19T00:19:47.860Z,8.35
2018-02-19T00:20:50.346Z,8.68
2018-02-19T00:21:52.860Z,8.20
2018-02-19T00:22:55.322Z,8.15
2018-02-19T00:23:58.047Z,8.80
2018-02-19T00:25:00.656Z,8.32
2018-02-19T00:26:03.154Z,7.90
2018-02-19T00:27:06.463Z,7.65
2018-02-19T00:28:08.941Z,8.40
2018-02-19T00:29:11.474Z,8.25
2018-02-19T00:30:13.956Z,8.15
2018-02-19T00:31:17.178Z,7.47
2018-02-19T00:32:19.691Z,7.78
2018-02-19T00:33:22.257Z,7.72
2018-02-19T00:34:24.720Z,7.82
2018-02-19T00:35:27.207Z,7.97
2018-02-19T00:36:30.431Z,8.02
2018-02-19T00:37:33.706Z,7.90
2018-02-19T00:38:36.200Z,7.85
2018-02-19T00:39:39.279Z,7.95
2018-02-19T00:40:41.790Z,8.15
2018-02-19T00:41:44.296Z,7.68
2018-02-19T00:42:47.570Z,7.15
2018-02-19T00:43:50.028Z,8.05
2018-02-19T00:44:52.957Z,8.02
2018-02-19T00:45:55.627Z,7.43
2018-02-19T00:46:58.346Z,7.60
2018-02-19T00:48:01.673Z,7.75
2018-02-19T00:49:05.006Z,8.43
2018-02-19T00:50:07.878Z,7.50
2018-02-19T00:51:11.131Z,7.55
2018-02-19T00:52:14.422Z,7.85
2018-02-19T00:53:16.900Z,7.40
2018-02-19T00:54:19.473Z,7.55
2018-02-19T00:55:22.137Z,7.97
2018-02-19T00:56:25.683Z,7.53
2018-02-19T00:57:28.150Z,7.97
2018-02-19T00:58:30.625Z,7.75
2018-02-19T00:59:33.207Z,7.85
2018-02-19T01:00:35.750Z,7.50
2018-02-19T01:01:38.218Z,8.10
2018-02-19T01:02:41.474Z,7.95
2018-02-19T01:03:44.725Z,8.10
2018-02-19T01:04:47.402Z,7.60
2018-02-19T01:05:49.892Z,7.90
2018-02-19T01:06:52.417Z,8.00
2018-02-19T01:07:54.911Z,7.80
2018-02-19T01:08:58.155Z,7.37
2018-02-19T01:10:01.430Z,8.18
2018-02-19T01:11:04.203Z,8.00
2018-02-19T01:12:07.654Z,7.00
2018-02-19T01:13:11.072Z,8.05
2018-02-19T01:14:13.683Z,7.68
2018-02-19T01:15:17.526Z,7.75
2018-02-19T01:16:20.022Z,7.80
2018-02-19T01:17:22.564Z,7.97
2018-02-19T01:18:25.793Z,8.15
2018-02-19T01:19:29.268Z,7.35
2018-02-19T01:20:31.776Z,8.23
2018-02-19T01:21:35.005Z,8.82
2018-02-19T01:22:37.556Z,7.80
2018-02-19T01:23:40.043Z,7.87
2018-02-19T01:24:43.189Z,8.27
2018-02-19T01:25:45.662Z,8.25
2018-02-19T01:26:48.982Z,7.55
2018-02-19T01:27:52.530Z,7.75
2018-02-19T01:28:55.099Z,8.10
2018-02-19T01:29:57.621Z,8.00
2018-02-19T01:31:00.956Z,7.72
2018-02-19T01:32:03.902Z,8.05
2018-02-19T01:33:06.462Z,8.20
2018-02-19T01:34:08.978Z,6.55
2018-02-19T01:35:12.226Z,7.70
2018-02-19T01:36:15.564Z,7.30
2018-02-19T01:37:18.155Z,7.30
2018-02-19T01:38:20.672Z,7.95
2018-02-19T01:39:23.651Z,7.72
2018-02-19T01:40:26.208Z,7.53
2018-02-19T01:41:29.805Z,7.35
2018-02-19T01:42:32.516Z,7.40
2018-02-19T01:43:35.115Z,8.05
2018-02-19T01:44:38.333Z,7.62
2018-02-19T01:45:40.797Z,7.93
2018-02-19T01:46:44.407Z,8.20
2018-02-19T01:47:46.897Z,7.97
2018-02-19T01:48:49.397Z,8.05
2018-02-19T01:50:04.442Z,8.18
2018-02-19T01:51:06.919Z,7.07
2018-02-19T01:52:11.846Z,8.18
2018-02-19T01:53:14.335Z,8.50
2018-02-19T01:54:17.591Z,7.78
2018-02-19T01:55:20.053Z,7.18
2018-02-19T01:56:22.560Z,8.07
2018-02-19T01:57:25.004Z,7.80
2018-02-19T01:58:27.601Z,8.65
2018-02-19T01:59:30.114Z,8.10
2018-02-19T02:00:33.356Z,8.27
2018-02-19T02:01:35.845Z,7.57
2018-02-19T02:02:39.109Z,7.45
2018-02-19T02:03:42.429Z,8.27
2018-02-19T02:04:44.903Z,8.18
2018-02-19T02:05:47.423Z,7.20
2018-02-19T02:06:49.961Z,8.23
2018-02-19T02:07:52.505Z,7.12
2018-02-19T02:08:54.970Z,7.97
2018-02-19T02:09:58.240Z,7.20
2018-02-19T02:11:00.823Z,8.10
2018-02-19T02:12:03.291Z,7.43
2018-02-19T02:13:05.751Z,7.70
2018-02-19T02:14:08.701Z,8.50
2018-02-19T02:15:11.172Z,8.52
2018-02-19T02:16:13.671Z,8.30
2018-02-19T02:17:16.173Z,8.40
2018-02-19T02:18:18.660Z,7.97
2018-02-19T02:19:21.139Z,8.02
2018-02-19T02:20:24.381Z,7.90
2018-02-19T02:21:26.931Z,7.87
2018-02-19T02:22:29.856Z,7.68
2018-02-19T02:23:32.419Z,8.60
2018-02-19T02:24:34.925Z,7.85
2018-02-19T02:25:38.371Z,7.82
2018-02-19T02:26:41.339Z,7.22
2018-02-19T02:27:43.818Z,7.65
2018-02-19T02:28:46.357Z,7.90
2018-02-19T02:29:49.599Z,7.43
2018-02-19T02:30:52.842Z,8.85
2018-02-19T02:31:56.080Z,8.35
2018-02-19T02:32:59.332Z,7.43
2018-02-19T02:34:02.631Z,7.95
2018-02-19T02:35:05.101Z,8.85
2018-02-19T02:36:08.310Z,8.50
2018-02-19T02:37:10.775Z,7.82
2018-02-19T02:38:13.348Z,7.87
2018-02-19T02:39:15.807Z,8.23
2018-02-19T02:40:19.035Z,8.50
2018-02-19T02:41:22.281Z,7.90
2018-02-19T02:42:25.539Z,8.35
2018-02-19T02:43:28.787Z,8.18
2018-02-19T02:44:31.252Z,8.20
2018-02-19T02:45:33.717Z,7.90
2018-02-19T02:46:36.978Z,8.07
2018-02-19T02:47:40.335Z,7.68
2018-02-19T02:48:42.809Z,7.30
2018-02-19T02:49:45.283Z,7.10
2018-02-19T02:50:47.799Z,7.95
2018-02-19T02:51:51.051Z,7.80
2018-02-19T02:52:54.399Z,8.15
2018-02-19T02:53:56.926Z,8.25
2018-02-19T02:54:59.446Z,8.00
2018-02-19T02:56:01.904Z,7.75
2018-02-19T02:57:04.447Z,8.10
2018-02-19T02:58:06.952Z,8.20
2018-02-19T02:59:09.522Z,8.52
2018-02-19T03:00:12.080Z,7.60
2018-02-19T03:01:15.364Z,7.50
2018-02-19T03:02:18.054Z,7.00
2018-02-19T03:03:20.538Z,8.43
2018-02-19T03:04:23.003Z,7.43
2018-02-19T03:05:25.512Z,7.50
2018-02-19T03:06:28.901Z,8.18
2018-02-19T03:07:32.200Z,8.38
2018-02-19T03:08:35.539Z,8.30
2018-02-19T03:09:38.780Z,7.65
2018-02-19T03:10:42.018Z,7.97
2018-02-19T03:11:45.361Z,8.15
2018-02-19T03:12:48.638Z,8.98
2018-02-19T03:13:51.102Z,8.50
2018-02-19T03:14:53.566Z,7.35
2018-02-19T03:15:56.825Z,8.50
2018-02-19T03:17:00.085Z,8.02
2018-02-19T03:18:02.798Z,7.55
2018-02-19T03:19:05.266Z,8.20
2018-02-19T03:20:07.731Z,7.72
2018-02-19T03:21:10.997Z,8.40
2018-02-19T03:22:14.354Z,7.37
2018-02-19T03:23:16.858Z,8.05
2018-02-19T03:24:19.328Z,7.78
2018-02-19T03:25:21.837Z,8.60
2018-02-19T03:26:24.385Z,8.23
2018-02-19T03:27:26.912Z,8.73
2018-02-19T03:28:29.541Z,7.97
2018-02-19T03:29:32.084Z,7.60
2018-02-19T03:30:34.536Z,8.18
2018-02-19T03:31:37.791Z,8.65
2018-02-19T03:32:40.714Z,8.85
2018-02-19T03:33:43.933Z,7.68
2018-02-19T03:34:47.175Z,8.80
2018-02-19T03:35:50.634Z,8.40
2018-02-19T03:36:53.886Z,7.93
2018-02-19T03:37:56.386Z,8.38
2018-02-19T03:38:58.849Z,8.00
2018-02-19T03:40:01.324Z,8.40
2018-02-19T03:41:04.555Z,8.77
2018-02-19T03:42:07.046Z,8.77
2018-02-19T03:43:09.541Z,7.90
2018-02-19T03:44:12.815Z,8.23
2018-02-19T03:45:15.329Z,8.48
2018-02-19T03:46:17.866Z,8.27
2018-02-19T03:47:20.339Z,8.10
2018-02-19T03:48:23.310Z,8.10
2018-02-19T03:49:25.838Z,8.68
2018-02-19T03:50:28.324Z,8.40
2018-02-19T03:51:30.785Z,8.63
2018-02-19T03:52:34.012Z,7.95
2018-02-19T03:53:37.222Z,9.15
2018-02-19T03:54:39.733Z,8.77
2018-02-19T03:55:42.178Z,8.60
2018-02-19T03:56:44.646Z,8.50
2018-02-19T03:57:47.183Z,9.02
2018-02-19T03:58:49.661Z,8.05
2018-02-19T03:59:52.221Z,8.30
2018-02-19T04:00:56.108Z,8.95
2018-02-19T04:01:58.657Z,8.85
2018-02-19T04:03:01.105Z,8.57
2018-02-19T04:04:03.578Z,9.00
2018-02-19T04:05:06.063Z,8.38
2018-02-19T04:06:09.320Z,9.27
2018-02-19T04:07:11.824Z,9.40
2018-02-19T04:08:15.042Z,8.75
2018-02-19T04:09:17.526Z,8.88
2018-02-19T04:10:21.531Z,8.68
2018-02-19T04:11:24.021Z,9.35
2018-02-19T04:12:26.548Z,9.52
2018-02-19T04:13:29.002Z,8.73
2018-02-19T04:14:31.495Z,9.32
2018-02-19T04:15:33.977Z,9.63
2018-02-19T04:16:37.243Z,9.00
2018-02-19T04:17:40.401Z,9.82
2018-02-19T04:18:42.870Z,9.18
2018-02-19T04:19:45.334Z,9.70
2018-02-19T04:20:47.790Z,9.88
2018-02-19T04:21:50.280Z,9.70
2018-02-19T04:22:52.789Z,9.73
2018-02-19T04:23:56.015Z,9.68
2018-02-19T04:24:58.506Z,9.70
2018-02-19T04:26:00.966Z,9.13
2018-02-19T04:27:03.532Z,10.10
2018-02-19T04:28:06.006Z,9.75
2018-02-19T04:29:09.240Z,9.88
2018-02-19T04:31:20.682Z,9.65
2018-02-19T04:32:23.932Z,10.50
2018-02-19T04:33:26.444Z,10.43
2018-02-19T04:34:29.698Z,10.05
2018-02-19T04:35:32.205Z,9.77
2018-02-19T04:36:35.442Z,10.10
2018-02-19T04:37:38.550Z,9.70
2018-02-19T04:38:41.126Z,10.55
2018-02-19T04:39:44.406Z,10.32
2018-02-19T04:40:46.902Z,10.65
2018-02-19T04:41:50.126Z,10.70
2018-02-19T04:42:54.303Z,10.90
2018-02-19T04:43:57.565Z,10.20
2018-02-19T04:46:38.378Z,11.23
2018-02-19T04:47:40.842Z,10.30
2018-02-19T04:48:43.302Z,10.02
2018-02-19T04:49:46.031Z,10.45
2018-02-19T04:50:48.617Z,10.93
2018-02-19T04:51:51.855Z,10.63
2018-02-19T04:52:55.103Z,9.75
2018-02-19T04:53:58.336Z,10.07
2018-02-19T04:55:01.590Z,10.68
2018-02-19T04:56:04.832Z,10.68
2018-02-19T04:57:08.076Z,10.63
2018-02-19T04:58:11.352Z,10.27
2018-02-19T04:59:13.871Z,10.27
2018-02-19T05:00:16.407Z,10.93
2018-02-19T05:01:18.870Z,10.00
2018-02-19T05:02:21.350Z,10.70
2018-02-19T05:03:23.850Z,10.45
2018-02-19T05:04:26.402Z,11.15
2018-02-19T05:05:28.878Z,11.10
2018-02-19T05:06:32.186Z,11.82
2018-02-19T05:07:34.655Z,11.73
2018-02-19T05:08:37.168Z,10.90
2018-02-19T05:09:40.461Z,11.35
2018-02-19T05:10:42.956Z,11.10
2018-02-19T05:11:46.208Z,11.35
2018-02-19T05:12:48.689Z,12.20
2018-02-19T05:13:51.184Z,11.95
2018-02-19T05:14:53.709Z,11.00
2018-02-19T05:15:56.244Z,11.48
2018-02-19T05:16:58.734Z,11.85
2018-02-19T05:18:01.236Z,12.27
2018-02-19T05:19:03.768Z,10.70
2018-02-19T05:20:07.004Z,11.50
2018-02-19T05:21:10.251Z,12.15
2018-02-19T05:22:13.518Z,11.85
2018-02-19T05:23:16.037Z,13.10
2018-02-19T05:24:18.594Z,11.90
2018-02-19T05:25:21.061Z,11.93
2018-02-19T05:26:23.637Z,11.68
2018-02-19T05:27:26.108Z,12.40
2018-02-19T05:28:28.678Z,12.13
2018-02-19T05:29:31.200Z,11.23
2018-02-19T05:30:33.696Z,12.57
2018-02-19T05:31:36.966Z,12.00
2018-02-19T05:32:39.454Z,11.43
2018-02-19T05:33:41.967Z,12.00
2018-02-19T05:34:45.999Z,12.45
2018-02-19T05:35:48.519Z,12.20
2018-02-19T05:36:51.025Z,12.25
2018-02-19T05:37:53.545Z,11.93
2018-02-19T05:38:56.856Z,12.07
2018-02-19T05:39:59.354Z,13.48
2018-02-19T05:41:01.913Z,12.60
2018-02-19T05:42:04.430Z,12.98
2018-02-19T05:43:07.400Z,12.57
2018-02-19T05:44:10.637Z,11.85
2018-02-19T05:45:13.938Z,13.05
2018-02-19T05:46:16.430Z,13.43
2018-02-19T05:47:18.919Z,11.20
2018-02-19T05:48:21.389Z,12.10
2018-02-19T05:49:23.886Z,12.93
2018-02-19T05:50:26.408Z,12.90
2018-02-19T05:51:29.675Z,14.15
2018-02-19T05:52:32.147Z,13.48
2018-02-19T05:53:34.614Z,13.02
2018-02-19T05:54:37.193Z,13.27
2018-02-19T05:55:39.690Z,12.65
2018-02-19T05:56:42.157Z,13.73
2018-02-19T05:57:45.478Z,13.20
2018-02-19T05:58:47.941Z,13.40
2018-02-19T05:59:51.260Z,13.50
2018-02-19T06:00:53.866Z,13.30
2018-02-19T06:01:56.376Z,12.30
2018-02-19T06:02:58.914Z,13.65
2018-02-19T06:04:01.459Z,13.02
2018-02-19T06:05:04.042Z,12.75
2018-02-19T06:06:07.458Z,12.52
2018-02-19T06:07:10.703Z,12.40
2018-02-19T06:08:14.061Z,13.07
2018-02-19T06:09:16.538Z,13.85
2018-02-19T06:10:19.050Z,13.62
2018-02-19T06:11:23.357Z,12.80
2018-02-19T06:12:27.604Z,13.18
2018-02-19T06:13:30.287Z,12.57
2018-02-19T06:14:32.788Z,13.98
2018-02-19T06:15:36.023Z,12.70
2018-02-19T06:16:38.745Z,12.70
2018-02-19T06:17:42.033Z,12.82
2018-02-19T06:18:44.520Z,13.25
2018-02-19T06:19:46.989Z,12.23
2018-02-19T06:20:49.465Z,13.65
2018-02-19T06:21:52.786Z,13.68
2018-02-19T06:22:55.290Z,13.15
2018-02-19T06:23:57.753Z,12.82
2018-02-19T06:25:01.728Z,13.50
2018-02-19T06:26:05.473Z,13.85
2018-02-19T06:27:08.241Z,13.85
2018-02-19T06:28:10.782Z,13.20
2018-02-19T06:29:13.263Z,13.20
2018-02-19T06:30:15.721Z,14.13
2018-02-19T06:31:18.249Z,13.23
2018-02-19T06:32:21.033Z,12.73
2018-02-19T06:33:23.543Z,12.60
2018-02-19T06:34:27.514Z,13.38
2018-02-19T06:35:30.824Z,14.15
2018-02-19T06:36:33.321Z,11.65
2018-02-19T06:37:35.798Z,12.15
2018-02-19T06:38:38.304Z,12.20
2018-02-19T06:39:40.784Z,12.15
2018-02-19T06:40:44.064Z,12.95
2018-02-19T06:41:46.595Z,12.13
2018-02-19T06:42:49.071Z,12.52
2018-02-19T06:43:52.412Z,13.23
2018-02-19T06:44:56.480Z,13.32
2018-02-19T06:45:59.762Z,12.50
2018-02-19T06:47:02.282Z,13.20
2018-02-19T06:48:04.791Z,12.45
2018-02-19T06:49:07.458Z,13.85
2018-02-19T06:50:10.000Z,13.50
2018-02-19T06:51:13.301Z,13.40
2018-02-19T06:52:15.780Z,12.52
2018-02-19T06:53:19.034Z,12.13
2018-02-19T06:54:22.299Z,13.05
2018-02-19T06:55:29.752Z,13.10
2018-02-19T06:56:32.276Z,12.05
2018-02-19T06:57:34.767Z,11.93
2018-02-19T06:58:37.357Z,12.00
2018-02-19T06:59:40.229Z,12.90
2018-02-19T07:00:43.525Z,12.80
2018-02-19T07:01:46.016Z,12.13
2018-02-19T07:02:48.545Z,13.05
2018-02-19T07:03:52.503Z,13.38
2018-02-19T07:04:55.009Z,12.88
2018-02-19T07:05:58.375Z,13.98
2018-02-19T07:07:00.920Z,12.85
2018-02-19T07:08:03.483Z,12.98
2018-02-19T07:09:06.002Z,12.45
2018-02-19T07:10:08.716Z,13.00
2018-02-19T07:11:11.185Z,12.50
2018-02-19T07:12:14.415Z,11.98
2018-02-19T07:13:16.901Z,12.35
2018-02-19T07:14:19.416Z,12.80
2018-02-19T07:15:21.890Z,12.50
2018-02-19T07:16:24.526Z,12.20
2018-02-19T07:17:27.907Z,13.18
2018-02-19T07:18:30.376Z,12.95
2018-02-19T07:19:32.990Z,13.07
2018-02-19T07:20:35.453Z,12.30
2018-02-19T07:21:38.706Z,12.52
2018-02-19T07:22:41.999Z,12.68
2018-02-19T07:23:44.531Z,11.77
2018-02-19T07:24:47.070Z,12.55
2018-02-19T07:25:49.637Z,13.18
2018-02-19T07:26:52.175Z,12.23
2018-02-19T07:27:54.745Z,12.98
2018-02-19T07:28:57.226Z,12.37
2018-02-19T07:29:59.717Z,12.35
2018-02-19T07:31:02.237Z,12.93
2018-02-19T07:32:04.708Z,12.40
2018-02-19T07:33:07.233Z,11.63
2018-02-19T07:34:09.740Z,12.73
2018-02-19T07:35:12.269Z,12.68
2018-02-19T07:36:14.766Z,12.30
2018-02-19T07:37:18.141Z,12.60
2018-02-19T07:38:20.594Z,13.73
2018-02-19T07:39:23.193Z,12.85
2018-02-19T07:40:25.693Z,11.80
2018-02-19T07:41:28.937Z,12.82
2018-02-19T07:42:32.193Z,13.62
2018-02-19T07:43:35.457Z,12.57
2018-02-19T07:44:38.038Z,13.00
2018-02-19T07:45:40.538Z,12.60
2018-02-19T07:46:43.151Z,12.80
2018-02-19T07:47:45.617Z,13.65
2018-02-19T07:48:48.079Z,13.45
2018-02-19T07:49:51.347Z,13.40
2018-02-19T07:50:53.821Z,12.88
2018-02-19T07:51:57.063Z,13.07
2018-02-19T07:53:01.692Z,12.73
2018-02-19T07:54:04.194Z,12.63
2018-02-19T07:55:06.677Z,12.23
2018-02-19T07:56:09.258Z,13.57
2018-02-19T07:57:11.742Z,13.15
2018-02-19T07:58:14.993Z,13.57
2018-02-19T07:59:18.233Z,13.48
2018-02-19T08:00:21.491Z,11.77
2018-02-19T08:01:23.951Z,12.70
2018-02-19T08:02:27.298Z,12.37
2018-02-19T08:03:29.714Z,13.15
2018-02-19T08:04:32.212Z,12.27
2018-02-19T08:05:34.707Z,13.32
2018-02-19T08:06:37.940Z,13.02
2018-02-19T08:07:41.907Z,12.25
2018-02-19T08:08:45.225Z,13.00
2018-02-19T08:09:47.795Z,13.15
2018-02-19T08:10:51.040Z,13.02
2018-02-19T08:11:54.274Z,12.45
2018-02-19T08:12:58.212Z,13.25
2018-02-19T08:14:01.618Z,12.60
2018-02-19T08:15:04.092Z,13.80
2018-02-19T08:16:06.641Z,12.70
2018-02-19T08:17:09.866Z,13.90
2018-02-19T08:18:13.134Z,12.00
2018-02-19T08:19:15.629Z,13.43
2018-02-19T08:20:18.094Z,14.07
2018-02-19T08:21:20.571Z,12.52
2018-02-19T08:22:23.044Z,12.93
2018-02-19T08:23:25.524Z,13.20
2018-02-19T08:24:28.895Z,12.85
2018-02-19T08:25:31.379Z,13.68
2018-02-19T08:26:35.345Z,13.60
2018-02-19T08:27:37.819Z,13.15
2018-02-19T08:28:40.306Z,13.32
2018-02-19T08:29:43.623Z,12.85
2018-02-19T08:30:46.814Z,13.55
2018-02-19T08:31:49.279Z,13.15
2018-02-19T08:32:51.777Z,12.55
2018-02-19T08:33:54.246Z,12.45
2018-02-19T08:34:56.715Z,13.23
2018-02-19T08:35:59.218Z,13.98
2018-02-19T08:37:02.472Z,13.60
2018-02-19T08:38:04.996Z,12.73
2018-02-19T08:39:08.255Z,12.60
2018-02-19T08:40:10.866Z,13.57
2018-02-19T08:41:14.134Z,13.60
2018-02-19T08:42:16.656Z,13.55
2018-02-19T08:43:19.191Z,13.90
2018-02-19T08:44:21.658Z,12.98
2018-02-19T08:45:24.231Z,13.13
2018-02-19T08:46:27.179Z,13.43
2018-02-19T08:47:29.705Z,14.05
2018-02-19T08:48:32.172Z,13.48
2018-02-19T08:49:34.642Z,13.62
2018-02-19T08:50:37.141Z,13.57
2018-02-19T08:51:39.634Z,12.95
2018-02-19T08:52:42.113Z,13.25
2018-02-19T08:53:44.586Z,13.23
2018-02-19T08:54:48.044Z,12.88
2018-02-19T08:55:50.498Z,13.10
2018-02-19T08:56:53.770Z,14.05
2018-02-19T08:57:56.234Z,13.25
2018-02-19T08:58:58.862Z,14.10
2018-02-19T09:00:01.343Z,13.32
2018-02-19T09:01:03.859Z,13.62
2018-02-19T09:02:07.082Z,13.07
2018-02-19T09:03:10.307Z,13.65
2018-02-19T09:04:12.856Z,13.88
2018-02-19T09:05:16.101Z,13.60
2018-02-19T09:06:19.328Z,13.20
2018-02-19T09:07:22.642Z,13.80
2018-02-19T09:08:26.084Z,13.52
2018-02-19T09:09:28.539Z,14.20
2018-02-19T09:10:31.009Z,13.15
2018-02-19T09:11:33.532Z,13.82
2018-02-19T09:12:36.056Z,12.93
2018-02-19T09:13:39.263Z,14.35
2018-02-19T09:14:42.531Z,13.73
2018-02-19T09:15:45.096Z,13.25
2018-02-19T09:16:47.587Z,14.02
2018-02-19T09:17:50.067Z,12.93
2018-02-19T09:18:52.538Z,13.45
2018-02-19T09:19:55.013Z,14.30
2018-02-19T09:20:57.515Z,12.32
2018-02-19T09:22:00.020Z,13.95
2018-02-19T09:23:02.487Z,13.50
2018-02-19T09:24:05.059Z,13.65
2018-02-19T09:25:07.574Z,12.30
2018-02-19T09:26:10.818Z,12.95
2018-02-19T09:27:13.309Z,13.68
2018-02-19T09:28:15.774Z,13.48
2018-02-19T09:29:18.244Z,12.93
2018-02-19T09:30:20.722Z,14.07
2018-02-19T09:31:23.248Z,12.90
2018-02-19T09:32:25.742Z,13.43
2018-02-19T09:33:28.225Z,14.10
2018-02-19T09:34:30.694Z,13.30
2018-02-19T09:35:33.957Z,13.40
2018-02-19T09:36:37.335Z,13.60
2018-02-19T09:37:39.856Z,13.62
2018-02-19T09:38:42.328Z,13.35
2018-02-19T09:39:45.038Z,13.38
2018-02-19T09:40:47.608Z,14.55
2018-02-19T09:41:50.199Z,12.93
2018-02-19T09:42:53.533Z,13.55
2018-02-19T09:43:56.018Z,12.63
2018-02-19T09:44:58.509Z,12.90
2018-02-19T09:46:00.984Z,13.13
2018-02-19T09:47:03.483Z,13.62
2018-02-19T09:48:06.733Z,14.52
2018-02-19T09:49:09.213Z,13.90
2018-02-19T09:50:11.695Z,13.38
2018-02-19T09:51:14.197Z,16.02
2018-02-19T09:52:17.508Z,13.52
2018-02-19T09:53:20.070Z,14.20
2018-02-19T09:54:23.298Z,15.05
2018-02-19T09:55:26.568Z,13.27
2018-02-19T09:57:38.020Z,13.82
2018-02-19T09:58:40.489Z,13.82
2018-02-19T09:59:43.225Z,13.77
2018-02-19T10:00:45.710Z,13.40
2018-02-19T10:01:48.172Z,14.35
2018-02-19T10:02:50.688Z,13.70
2018-02-19T10:03:53.261Z,14.45
2018-02-19T10:04:55.793Z,15.00
2018-02-19T10:05:58.325Z,13.88
2018-02-19T10:07:00.802Z,14.43
2018-02-19T10:08:04.364Z,14.10
2018-02-19T10:09:06.831Z,13.62
2018-02-19T10:10:09.293Z,12.73
2018-02-19T10:11:12.552Z,13.15
2018-02-19T10:12:15.059Z,14.05
2018-02-19T10:13:17.530Z,13.10
2018-02-19T10:14:20.011Z,13.82
2018-02-19T10:15:22.477Z,13.00
2018-02-19T10:16:24.968Z,13.60
2018-02-19T10:17:27.487Z,14.05
2018-02-19T10:18:29.981Z,12.70
2018-02-19T10:19:32.459Z,14.50
2018-02-19T10:20:34.919Z,13.30
2018-02-19T10:21:38.003Z,14.65
2018-02-19T10:22:41.066Z,14.43
2018-02-19T10:23:43.584Z,13.68
2018-02-19T10:24:46.083Z,13.55
2018-02-19T10:25:48.575Z,13.23
2018-02-19T10:26:51.030Z,13.00
2018-02-19T10:27:54.254Z,12.77
2018-02-19T10:28:57.611Z,13.77
2018-02-19T10:30:01.516Z,12.85
2018-02-19T10:31:03.987Z,13.23
2018-02-19T10:32:07.214Z,13.55
2018-02-19T10:33:10.454Z,12.93
2018-02-19T10:34:13.021Z,13.95
2018-02-19T10:35:15.484Z,13.68
2018-02-19T10:36:18.071Z,13.52
2018-02-19T10:37:20.830Z,13.10
2018-02-19T10:38:23.301Z,14.55
2018-02-19T10:39:26.655Z,12.77
2018-02-19T10:40:29.924Z,13.25
2018-02-19T10:41:32.398Z,13.48
2018-02-19T10:42:34.918Z,13.35
2018-02-19T10:43:37.427Z,13.55
2018-02-19T10:44:39.924Z,14.40
2018-02-19T10:45:43.157Z,13.48
2018-02-19T10:46:46.829Z,13.68
2018-02-19T10:47:50.979Z,13.98
2018-02-19T10:48:53.442Z,12.48
2018-02-19T10:49:55.919Z,13.13
2018-02-19T10:51:00.482Z,11.85
2018-02-19T10:52:03.704Z,13.23
2018-02-19T10:53:06.176Z,13.35
2018-02-19T10:54:08.638Z,14.00
2018-02-19T10:55:11.921Z,12.20
2018-02-19T10:56:14.430Z,13.90
2018-02-19T10:57:17.713Z,13.23
2018-02-19T10:58:20.180Z,13.50
2018-02-19T10:59:22.651Z,13.68
2018-02-19T11:00:30.860Z,12.68
2018-02-19T11:01:34.081Z,12.80
2018-02-19T11:02:37.366Z,13.32
2018-02-19T11:03:39.916Z,13.27
2018-02-19T11:04:43.068Z,13.80
2018-02-19T11:05:45.568Z,13.48
2018-02-19T11:06:49.675Z,13.98
2018-02-19T11:07:52.218Z,12.77
2018-02-19T11:08:54.708Z,12.80
2018-02-19T11:09:57.195Z,13.40
2018-02-19T11:10:59.846Z,12.40
2018-02-19T11:12:03.215Z,14.70
2018-02-19T11:13:05.873Z,13.50
2018-02-19T11:14:08.348Z,12.05
2018-02-19T11:15:10.827Z,12.60
2018-02-19T11:16:13.368Z,13.80
2018-02-19T11:17:16.056Z,14.10
2018-02-19T11:18:18.671Z,14.55
2018-02-19T11:19:21.280Z,13.75
2018-02-19T11:20:23.807Z,13.35
2018-02-19T11:21:27.118Z,14.18
2018-02-19T11:22:30.203Z,14.82
2018-02-19T11:23:32.744Z,13.85
2018-02-19T11:24:35.323Z,12.73
2018-02-19T11:25:38.650Z,13.18
2018-02-19T11:26:41.939Z,13.98
2018-02-19T11:27:44.471Z,12.90
2018-02-19T11:28:46.964Z,14.65
2018-02-19T11:29:50.194Z,12.82
2018-02-19T11:30:53.462Z,13.88
2018-02-19T11:31:55.981Z,13.52
2018-02-19T11:32:59.289Z,13.90
2018-02-19T11:34:01.808Z,13.77
2018-02-19T11:35:04.295Z,14.00
2018-02-19T11:36:07.155Z,13.15
2018-02-19T11:37:10.129Z,13.20
2018-02-19T11:38:13.540Z,13.32
2018-02-19T11:39:16.205Z,12.70
2018-02-19T11:40:19.463Z,14.25
2018-02-19T11:41:22.803Z,13.80
2018-02-19T11:42:25.326Z,12.65
2018-02-19T11:43:28.978Z,13.23
2018-02-19T11:44:31.526Z,12.90
2018-02-19T11:45:34.008Z,14.02
2018-02-19T11:46:36.483Z,14.07
2018-02-19T11:47:39.080Z,12.52
2018-02-19T11:48:42.854Z,14.07
2018-02-19T11:49:45.343Z,12.90
2018-02-19T11:50:47.858Z,13.30
2018-02-19T11:51:50.385Z,13.95
2018-02-19T11:52:52.879Z,13.48
2018-02-19T11:53:55.338Z,12.40
2018-02-19T11:54:57.845Z,13.80
2018-02-19T11:56:00.339Z,14.45
2018-02-19T11:57:02.861Z,13.40
2018-02-19T11:58:05.617Z,13.55
2018-02-19T11:59:08.081Z,13.07
2018-02-19T12:00:10.623Z,13.05
2018-02-19T12:01:13.853Z,13.65
2018-02-19T12:02:17.099Z,13.62
2018-02-19T12:03:20.344Z,13.43
2018-02-19T12:04:23.571Z,13.55
2018-02-19T12:05:26.053Z,13.50
2018-02-19T12:06:28.550Z,13.40
2018-02-19T12:07:31.040Z,13.77
2018-02-19T12:08:33.580Z,13.93
2018-02-19T12:09:36.843Z,13.45
2018-02-19T12:10:40.122Z,14.45
2018-02-19T12:11:42.713Z,14.40
2018-02-19T12:12:46.014Z,13.43
2018-02-19T12:13:48.472Z,13.80
2018-02-19T12:14:51.864Z,13.43
2018-02-19T12:15:54.468Z,13.85
2018-02-19T12:16:56.930Z,14.18
2018-02-19T12:17:59.394Z,13.38
2018-02-19T12:19:02.670Z,13.10
2018-02-19T12:20:05.235Z,14.30
2018-02-19T12:21:07.734Z,14.63
2018-02-19T12:22:10.231Z,13.75
2018-02-19T12:23:12.769Z,14.57
2018-02-19T12:24:15.279Z,14.48
2018-02-19T12:25:18.530Z,14.45
2018-02-19T12:26:21.060Z,14.55
2018-02-19T12:27:23.593Z,14.48
2018-02-19T12:28:26.145Z,15.70
2018-02-19T12:29:28.633Z,14.95
2018-02-19T12:30:31.158Z,14.60
2018-02-19T12:31:33.653Z,13.98
2018-02-19T12:32:36.157Z,14.20
2018-02-19T12:33:38.646Z,13.07
2018-02-19T12:34:41.137Z,13.20
2018-02-19T12:35:44.400Z,12.75
2018-02-19T12:36:46.876Z,13.70
2018-02-19T12:37:49.351Z,12.80
2018-02-19T12:38:51.854Z,13.93
2018-02-19T12:39:54.461Z,14.07
2018-02-19T12:40:57.038Z,13.88
2018-02-19T12:41:59.502Z,14.55
2018-02-19T12:43:02.775Z,13.77
2018-02-19T12:44:06.082Z,14.48
2018-02-19T12:45:08.539Z,13.60
2018-02-19T12:46:12.203Z,13.68
2018-02-19T12:47:15.422Z,14.45
2018-02-19T12:48:17.890Z,13.62
2018-02-19T12:49:20.363Z,14.27
2018-02-19T12:50:22.857Z,14.60
2018-02-19T12:51:25.327Z,14.18
2018-02-19T12:52:27.790Z,15.05
2018-02-19T12:53:30.247Z,15.55
2018-02-19T12:54:32.724Z,13.35
2018-02-19T12:55:36.171Z,14.48
2018-02-19T12:56:39.415Z,13.40
2018-02-19T12:57:42.682Z,14.65
2018-02-19T12:58:45.163Z,14.10
2018-02-19T12:59:48.424Z,13.65
2018-02-19T13:00:51.782Z,13.35
2018-02-19T13:01:54.274Z,14.65
2018-02-19T13:02:56.732Z,14.75
2018-02-19T13:03:59.188Z,14.43
2018-02-19T13:05:01.653Z,14.38
2018-02-19T13:06:04.146Z,13.60
2018-02-19T13:07:07.379Z,13.43
2018-02-19T13:08:09.838Z,13.48
2018-02-19T13:09:12.314Z,14.90
2018-02-19T13:10:14.794Z,14.95
2018-02-19T13:11:18.231Z,14.40
2018-02-19T13:12:20.776Z,14.63
2018-02-19T13:13:24.010Z,13.62
2018-02-19T13:14:26.466Z,15.02
2018-02-19T13:15:28.930Z,14.73
2018-02-19T13:16:32.117Z,13.00
2018-02-19T13:17:34.627Z,14.65
2018-02-19T13:18:37.871Z,13.85
2018-02-19T13:19:41.108Z,14.35
2018-02-19T13:21:46.379Z,14.10
2018-02-19T13:22:49.805Z,14.13
2018-02-19T13:23:52.278Z,13.00
2018-02-19T13:24:54.811Z,14.10
2018-02-19T13:25:58.073Z,13.57
2018-02-19T13:27:00.612Z,14.43
2018-02-19T13:28:03.806Z,14.23
2018-02-19T13:29:06.265Z,13.02
2018-02-19T13:30:08.764Z,13.60
2018-02-19T13:31:11.258Z,12.75
2018-02-19T13:32:13.751Z,13.23
2018-02-19T13:33:16.371Z,13.40
2018-02-19T13:34:18.901Z,13.30
2018-02-19T13:35:21.378Z,13.25
2018-02-19T13:36:23.944Z,13.40
2018-02-19T13:37:26.458Z,12.55
2018-02-19T13:38:29.275Z,12.95
2018-02-19T13:39:32.602Z,12.60
2018-02-19T13:40:35.132Z,13.82
2018-02-19T13:41:37.603Z,13.57
2018-02-19T13:42:40.088Z,14.07
2018-02-19T13:43:43.123Z,14.52